Terminal Aerodrome Forecast
Issued by NWS Sioux Falls, SD

Home | Current Version | Previous Version | Text Only | Print | Product List | Glossary Off
Versions: 1 2 3 4 5 6 7 8 9 10 11 12 13 14 15

000
FTUS43 KFSD 281121
TAFFSD
TAF
KFSD 281121Z 2812/2912 29017G26KT P6SM OVC035
      TEMPO 2813/2816 BKN030
     FM282100 30014G22KT P6SM BKN040
     FM290000 28010KT P6SM SCT040
     FM290300 28005KT P6SM SKC=

USA.gov is the U.S. government's official web portal to all federal, state and local government web resources and services.